sensor_id;sensor_type;location;lat;lon;timestamp;P1;durP1;ratioP1;P2;durP2;ratioP2
43891;SDS011;29555;45.350;5.578;2023-06-14T00:01:00;0.95;;;0.80;;
43891;SDS011;29555;45.350;5.578;2023-06-14T00:03:27;2.97;;;1.35;;
43891;SDS011;29555;45.350;5.578;2023-06-14T00:05:53;0.93;;;0.82;;
43891;SDS011;29555;45.350;5.578;2023-06-14T00:08:19;1.42;;;1.20;;
43891;SDS011;29555;45.350;5.578;2023-06-14T00:10:46;1.05;;;1.00;;
43891;SDS011;29555;45.350;5.578;2023-06-14T00:13:11;3.67;;;0.82;;
43891;SDS011;29555;45.350;5.578;2023-06-14T00:15:37;1.20;;;1.10;;
43891;SDS011;29555;45.350;5.578;2023-06-14T00:18:03;4.78;;;0.73;;
43891;SDS011;29555;45.350;5.578;2023-06-14T00:20:29;1.42;;;1.33;;
43891;SDS011;29555;45.350;5.578;2023-06-14T00:22:57;0.73;;;0.73;;
43891;SDS011;29555;45.350;5.578;2023-06-14T00:25:23;1.02;;;0.95;;
43891;SDS011;29555;45.350;5.578;2023-06-14T00:27:52;1.20;;;1.10;;
43891;SDS011;29555;45.350;5.578;2023-06-14T00:30:18;3.17;;;1.23;;
43891;SDS011;29555;45.350;5.578;2023-06-14T00:32:45;0.55;;;0.50;;
43891;SDS011;29555;45.350;5.578;2023-06-14T00:35:10;1.33;;;0.93;;
43891;SDS011;29555;45.350;5.578;2023-06-14T00:37:36;4.55;;;0.98;;
43891;SDS011;29555;45.350;5.578;2023-06-14T00:40:02;0.60;;;0.52;;
43891;SDS011;29555;45.350;5.578;2023-06-14T00:42:29;1.95;;;1.17;;
43891;SDS011;29555;45.350;5.578;2023-06-14T00:44:55;1.15;;;1.05;;
43891;SDS011;29555;45.350;5.578;2023-06-14T00:47:20;6.43;;;1.45;;
43891;SDS011;29555;45.350;5.578;2023-06-14T00:49:55;2.33;;;1.42;;
43891;SDS011;29555;45.350;5.578;2023-06-14T00:52:21;1.27;;;1.02;;
43891;SDS011;29555;45.350;5.578;2023-06-14T00:54:49;0.75;;;0.75;;
43891;SDS011;29555;45.350;5.578;2023-06-14T00:57:14;1.15;;;1.05;;
43891;SDS011;29555;45.350;5.578;2023-06-14T00:59:44;2.08;;;1.38;;
43891;SDS011;29555;45.350;5.578;2023-06-14T01:02:11;2.67;;;1.88;;
43891;SDS011;29555;45.350;5.578;2023-06-14T01:04:37;5.13;;;1.55;;
43891;SDS011;29555;45.350;5.578;2023-06-14T01:07:15;4.05;;;1.27;;
43891;SDS011;29555;45.350;5.578;2023-06-14T01:12:31;0.80;;;0.80;;
43891;SDS011;29555;45.350;5.578;2023-06-14T01:15:03;4.15;;;1.23;;
43891;SDS011;29555;45.350;5.578;2023-06-14T01:17:29;1.35;;;1.25;;
43891;SDS011;29555;45.350;5.578;2023-06-14T01:19:58;6.10;;;1.25;;
43891;SDS011;29555;45.350;5.578;2023-06-14T01:22:27;0.82;;;0.82;;
43891;SDS011;29555;45.350;5.578;2023-06-14T01:24:53;0.80;;;0.80;;
43891;SDS011;29555;45.350;5.578;2023-06-14T01:27:22;1.45;;;1.10;;
43891;SDS011;29555;45.350;5.578;2023-06-14T01:29:49;0.70;;;0.70;;
43891;SDS011;29555;45.350;5.578;2023-06-14T01:32:16;3.25;;;1.08;;
43891;SDS011;29555;45.350;5.578;2023-06-14T01:34:43;1.35;;;0.98;;
43891;SDS011;29555;45.350;5.578;2023-06-14T01:37:08;1.20;;;0.95;;
43891;SDS011;29555;45.350;5.578;2023-06-14T01:39:36;0.80;;;0.73;;
43891;SDS011;29555;45.350;5.578;2023-06-14T01:42:02;1.08;;;0.93;;
43891;SDS011;29555;45.350;5.578;2023-06-14T01:44:28;2.20;;;0.93;;
43891;SDS011;29555;45.350;5.578;2023-06-14T01:46:55;1.42;;;1.02;;
43891;SDS011;29555;45.350;5.578;2023-06-14T01:49:21;2.22;;;0.95;;
43891;SDS011;29555;45.350;5.578;2023-06-14T01:51:46;4.10;;;1.08;;
43891;SDS011;29555;45.350;5.578;2023-06-14T01:54:12;1.98;;;0.88;;
43891;SDS011;29555;45.350;5.578;2023-06-14T01:56:37;1.60;;;0.98;;
43891;SDS011;29555;45.350;5.578;2023-06-14T01:59:02;0.70;;;0.70;;
43891;SDS011;29555;45.350;5.578;2023-06-14T02:01:28;15.05;;;1.42;;
43891;SDS011;29555;45.350;5.578;2023-06-14T02:03:53;0.70;;;0.70;;
43891;SDS011;29555;45.350;5.578;2023-06-14T02:06:19;1.85;;;1.38;;
43891;SDS011;29555;45.350;5.578;2023-06-14T02:08:44;6.60;;;1.02;;
43891;SDS011;29555;45.350;5.578;2023-06-14T02:11:10;0.80;;;0.80;;
43891;SDS011;29555;45.350;5.578;2023-06-14T02:13:35;1.20;;;1.00;;
43891;SDS011;29555;45.350;5.578;2023-06-14T02:16:00;6.90;;;2.03;;
43891;SDS011;29555;45.350;5.578;2023-06-14T02:18:26;1.92;;;0.95;;
43891;SDS011;29555;45.350;5.578;2023-06-14T02:20:52;0.90;;;0.85;;
43891;SDS011;29555;45.350;5.578;2023-06-14T02:23:18;3.70;;;1.40;;
43891;SDS011;29555;45.350;5.578;2023-06-14T02:25:43;1.20;;;1.08;;
43891;SDS011;29555;45.350;5.578;2023-06-14T02:28:10;1.35;;;1.23;;
43891;SDS011;29555;45.350;5.578;2023-06-14T02:30:35;1.25;;;0.90;;
43891;SDS011;29555;45.350;5.578;2023-06-14T02:33:00;0.82;;;0.82;;
43891;SDS011;29555;45.350;5.578;2023-06-14T02:35:26;2.00;;;0.88;;
43891;SDS011;29555;45.350;5.578;2023-06-14T02:37:52;1.75;;;1.65;;
43891;SDS011;29555;45.350;5.578;2023-06-14T02:40:19;3.42;;;1.63;;
43891;SDS011;29555;45.350;5.578;2023-06-14T02:42:45;2.28;;;1.10;;
43891;SDS011;29555;45.350;5.578;2023-06-14T02:45:11;5.10;;;1.50;;
43891;SDS011;29555;45.350;5.578;2023-06-14T02:47:36;1.88;;;1.45;;
43891;SDS011;29555;45.350;5.578;2023-06-14T02:50:02;0.88;;;0.77;;
43891;SDS011;29555;45.350;5.578;2023-06-14T02:52:27;1.88;;;1.23;;
43891;SDS011;29555;45.350;5.578;2023-06-14T02:54:53;2.65;;;0.85;;
43891;SDS011;29555;45.350;5.578;2023-06-14T02:57:21;4.40;;;1.45;;
43891;SDS011;29555;45.350;5.578;2023-06-14T02:59:47;0.73;;;0.68;;
43891;SDS011;29555;45.350;5.578;2023-06-14T03:02:12;2.42;;;1.00;;
43891;SDS011;29555;45.350;5.578;2023-06-14T03:04:38;1.58;;;1.02;;
43891;SDS011;29555;45.350;5.578;2023-06-14T03:07:03;1.42;;;1.20;;
43891;SDS011;29555;45.350;5.578;2023-06-14T03:09:34;9.57;;;1.25;;
43891;SDS011;29555;45.350;5.578;2023-06-14T03:12:01;7.30;;;1.35;;
43891;SDS011;29555;45.350;5.578;2023-06-14T03:14:28;1.42;;;0.70;;
43891;SDS011;29555;45.350;5.578;2023-06-14T03:16:54;6.40;;;1.55;;
43891;SDS011;29555;45.350;5.578;2023-06-14T03:19:21;1.40;;;1.13;;
43891;SDS011;29555;45.350;5.578;2023-06-14T03:21:47;1.13;;;1.02;;
43891;SDS011;29555;45.350;5.578;2023-06-14T03:24:12;1.15;;;0.98;;
43891;SDS011;29555;45.350;5.578;2023-06-14T03:26:38;8.55;;;0.90;;
43891;SDS011;29555;45.350;5.578;2023-06-14T03:29:03;1.50;;;1.27;;
43891;SDS011;29555;45.350;5.578;2023-06-14T03:31:29;1.15;;;1.05;;
43891;SDS011;29555;45.350;5.578;2023-06-14T03:33:58;1.58;;;1.17;;
43891;SDS011;29555;45.350;5.578;2023-06-14T03:36:23;5.82;;;0.88;;
43891;SDS011;29555;45.350;5.578;2023-06-14T03:38:53;11.13;;;1.30;;
43891;SDS011;29555;45.350;5.578;2023-06-14T03:41:19;2.45;;;2.13;;
43891;SDS011;29555;45.350;5.578;2023-06-14T03:43:44;1.88;;;1.67;;
43891;SDS011;29555;45.350;5.578;2023-06-14T03:46:10;13.23;;;1.83;;
43891;SDS011;29555;45.350;5.578;2023-06-14T03:48:35;6.40;;;1.00;;
43891;SDS011;29555;45.350;5.578;2023-06-14T03:51:00;1.58;;;1.48;;
43891;SDS011;29555;45.350;5.578;2023-06-14T03:53:27;1.98;;;1.75;;
43891;SDS011;29555;45.350;5.578;2023-06-14T03:55:54;3.22;;;1.55;;
43891;SDS011;29555;45.350;5.578;2023-06-14T03:58:19;1.70;;;1.60;;
43891;SDS011;29555;45.350;5.578;2023-06-14T04:00:45;2.80;;;1.45;;
43891;SDS011;29555;45.350;5.578;2023-06-14T04:03:10;1.75;;;1.33;;
43891;SDS011;29555;45.350;5.578;2023-06-14T04:05:38;7.90;;;2.33;;
43891;SDS011;29555;45.350;5.578;2023-06-14T04:08:07;8.55;;;1.60;;
43891;SDS011;29555;45.350;5.578;2023-06-14T04:10:34;1.48;;;1.15;;
43891;SDS011;29555;45.350;5.578;2023-06-14T04:12:59;1.20;;;1.10;;
43891;SDS011;29555;45.350;5.578;2023-06-14T04:15:25;3.53;;;1.50;;
43891;SDS011;29555;45.350;5.578;2023-06-14T04:17:52;2.28;;;1.55;;
43891;SDS011;29555;45.350;5.578;2023-06-14T04:20:22;0.95;;;0.93;;
43891;SDS011;29555;45.350;5.578;2023-06-14T04:22:49;13.48;;;1.67;;
43891;SDS011;29555;45.350;5.578;2023-06-14T04:25:14;3.45;;;1.30;;
43891;SDS011;29555;45.350;5.578;2023-06-14T04:27:40;6.18;;;1.88;;
43891;SDS011;29555;45.350;5.578;2023-06-14T04:30:06;1.30;;;1.17;;
43891;SDS011;29555;45.350;5.578;2023-06-14T04:32:32;3.05;;;1.52;;
43891;SDS011;29555;45.350;5.578;2023-06-14T04:35:07;8.88;;;1.90;;
43891;SDS011;29555;45.350;5.578;2023-06-14T04:37:33;1.75;;;0.90;;
43891;SDS011;29555;45.350;5.578;2023-06-14T04:39:58;2.00;;;1.60;;
43891;SDS011;29555;45.350;5.578;2023-06-14T04:42:24;1.52;;;1.30;;
43891;SDS011;29555;45.350;5.578;2023-06-14T04:44:50;2.58;;;1.58;;
43891;SDS011;29555;45.350;5.578;2023-06-14T04:47:20;1.60;;;1.27;;
43891;SDS011;29555;45.350;5.578;2023-06-14T04:49:46;1.83;;;1.55;;
43891;SDS011;29555;45.350;5.578;2023-06-14T04:52:11;2.28;;;1.30;;
43891;SDS011;29555;45.350;5.578;2023-06-14T04:54:38;2.53;;;1.75;;
43891;SDS011;29555;45.350;5.578;2023-06-14T04:57:06;10.45;;;1.73;;
43891;SDS011;29555;45.350;5.578;2023-06-14T04:59:31;9.35;;;1.45;;
43891;SDS011;29555;45.350;5.578;2023-06-14T05:02:00;2.15;;;1.02;;
43891;SDS011;29555;45.350;5.578;2023-06-14T05:04:26;6.95;;;1.73;;
43891;SDS011;29555;45.350;5.578;2023-06-14T05:06:53;3.28;;;1.95;;
43891;SDS011;29555;45.350;5.578;2023-06-14T05:09:19;4.00;;;1.45;;
43891;SDS011;29555;45.350;5.578;2023-06-14T05:11:46;5.70;;;1.02;;
43891;SDS011;29555;45.350;5.578;2023-06-14T05:14:12;0.98;;;0.95;;
43891;SDS011;29555;45.350;5.578;2023-06-14T05:16:38;1.23;;;1.08;;
43891;SDS011;29555;45.350;5.578;2023-06-14T05:19:04;1.40;;;1.30;;
43891;SDS011;29555;45.350;5.578;2023-06-14T05:21:30;9.35;;;1.70;;
43891;SDS011;29555;45.350;5.578;2023-06-14T05:23:58;7.00;;;1.30;;
43891;SDS011;29555;45.350;5.578;2023-06-14T05:26:24;4.55;;;0.70;;
43891;SDS011;29555;45.350;5.578;2023-06-14T05:28:53;1.70;;;1.60;;
43891;SDS011;29555;45.350;5.578;2023-06-14T05:31:25;4.28;;;1.30;;
43891;SDS011;29555;45.350;5.578;2023-06-14T05:33:50;1.70;;;1.02;;
43891;SDS011;29555;45.350;5.578;2023-06-14T05:36:16;4.50;;;1.63;;
43891;SDS011;29555;45.350;5.578;2023-06-14T05:38:42;2.22;;;1.83;;
43891;SDS011;29555;45.350;5.578;2023-06-14T05:41:07;4.07;;;1.15;;
43891;SDS011;29555;45.350;5.578;2023-06-14T05:43:32;1.17;;;1.15;;
43891;SDS011;29555;45.350;5.578;2023-06-14T05:45:58;1.70;;;1.60;;
43891;SDS011;29555;45.350;5.578;2023-06-14T05:48:23;1.60;;;1.50;;
43891;SDS011;29555;45.350;5.578;2023-06-14T05:50:49;1.73;;;1.17;;
43891;SDS011;29555;45.350;5.578;2023-06-14T05:53:14;1.50;;;1.40;;
43891;SDS011;29555;45.350;5.578;2023-06-14T05:55:39;1.48;;;1.38;;
43891;SDS011;29555;45.350;5.578;2023-06-14T05:58:05;0.95;;;0.90;;
43891;SDS011;29555;45.350;5.578;2023-06-14T06:00:30;1.95;;;1.50;;
43891;SDS011;29555;45.350;5.578;2023-06-14T06:02:56;3.13;;;0.98;;
43891;SDS011;29555;45.350;5.578;2023-06-14T06:05:22;0.98;;;0.98;;
43891;SDS011;29555;45.350;5.578;2023-06-14T06:07:48;8.45;;;2.28;;
43891;SDS011;29555;45.350;5.578;2023-06-14T06:10:14;5.85;;;1.02;;
43891;SDS011;29555;45.350;5.578;2023-06-14T06:12:40;1.00;;;1.00;;
43891;SDS011;29555;45.350;5.578;2023-06-14T06:15:06;3.30;;;1.33;;
43891;SDS011;29555;45.350;5.578;2023-06-14T06:17:32;1.80;;;1.33;;
43891;SDS011;29555;45.350;5.578;2023-06-14T06:19:58;4.32;;;1.45;;
43891;SDS011;29555;45.350;5.578;2023-06-14T06:22:23;3.60;;;1.67;;
43891;SDS011;29555;45.350;5.578;2023-06-14T06:24:49;2.58;;;1.80;;
43891;SDS011;29555;45.350;5.578;2023-06-14T06:27:15;1.90;;;1.35;;
43891;SDS011;29555;45.350;5.578;2023-06-14T06:29:41;4.00;;;1.95;;
43891;SDS011;29555;45.350;5.578;2023-06-14T06:32:08;3.85;;;1.92;;
43891;SDS011;29555;45.350;5.578;2023-06-14T06:34:33;11.40;;;2.50;;
43891;SDS011;29555;45.350;5.578;2023-06-14T06:37:00;6.13;;;1.95;;
43891;SDS011;29555;45.350;5.578;2023-06-14T06:39:26;1.40;;;1.23;;
43891;SDS011;29555;45.350;5.578;2023-06-14T06:41:53;1.95;;;1.70;;
43891;SDS011;29555;45.350;5.578;2023-06-14T06:44:19;6.20;;;1.83;;
43891;SDS011;29555;45.350;5.578;2023-06-14T06:46:44;1.77;;;1.60;;
43891;SDS011;29555;45.350;5.578;2023-06-14T06:49:10;1.92;;;1.65;;
43891;SDS011;29555;45.350;5.578;2023-06-14T06:51:37;2.63;;;1.40;;
43891;SDS011;29555;45.350;5.578;2023-06-14T06:54:02;5.22;;;2.38;;
43891;SDS011;29555;45.350;5.578;2023-06-14T06:56:28;3.80;;;2.08;;
43891;SDS011;29555;45.350;5.578;2023-06-14T06:58:53;4.35;;;2.22;;
43891;SDS011;29555;45.350;5.578;2023-06-14T07:01:19;3.95;;;3.30;;
43891;SDS011;29555;45.350;5.578;2023-06-14T07:03:44;2.83;;;2.63;;
43891;SDS011;29555;45.350;5.578;2023-06-14T07:06:10;2.67;;;2.40;;
43891;SDS011;29555;45.350;5.578;2023-06-14T07:08:36;4.63;;;2.60;;
43891;SDS011;29555;45.350;5.578;2023-06-14T07:11:03;4.80;;;1.95;;
43891;SDS011;29555;45.350;5.578;2023-06-14T07:13:29;2.10;;;1.67;;
43891;SDS011;29555;45.350;5.578;2023-06-14T07:15:55;1.98;;;1.77;;
43891;SDS011;29555;45.350;5.578;2023-06-14T07:18:23;2.60;;;1.35;;
43891;SDS011;29555;45.350;5.578;2023-06-14T07:20:49;2.22;;;1.85;;
43891;SDS011;29555;45.350;5.578;2023-06-14T07:23:15;6.35;;;1.98;;
43891;SDS011;29555;45.350;5.578;2023-06-14T07:25:40;18.70;;;2.42;;
43891;SDS011;29555;45.350;5.578;2023-06-14T07:28:06;2.35;;;1.52;;
43891;SDS011;29555;45.350;5.578;2023-06-14T07:30:32;1.50;;;1.40;;
43891;SDS011;29555;45.350;5.578;2023-06-14T07:32:57;1.45;;;1.35;;
43891;SDS011;29555;45.350;5.578;2023-06-14T07:35:23;8.88;;;2.75;;
43891;SDS011;29555;45.350;5.578;2023-06-14T07:37:48;2.13;;;1.80;;
43891;SDS011;29555;45.350;5.578;2023-06-14T07:40:14;3.15;;;2.58;;
43891;SDS011;29555;45.350;5.578;2023-06-14T07:42:40;3.05;;;2.20;;
43891;SDS011;29555;45.350;5.578;2023-06-14T07:45:05;3.60;;;2.00;;
43891;SDS011;29555;45.350;5.578;2023-06-14T07:47:32;3.70;;;2.03;;
43891;SDS011;29555;45.350;5.578;2023-06-14T07:49:58;4.55;;;2.40;;
43891;SDS011;29555;45.350;5.578;2023-06-14T07:52:23;2.25;;;2.08;;
43891;SDS011;29555;45.350;5.578;2023-06-14T07:54:48;2.30;;;1.48;;
43891;SDS011;29555;45.350;5.578;2023-06-14T07:57:14;1.92;;;1.65;;
43891;SDS011;29555;45.350;5.578;2023-06-14T07:59:39;1.55;;;1.20;;
43891;SDS011;29555;45.350;5.578;2023-06-14T08:02:05;3.97;;;1.80;;
43891;SDS011;29555;45.350;5.578;2023-06-14T08:04:31;2.25;;;2.00;;
43891;SDS011;29555;45.350;5.578;2023-06-14T08:06:57;2.00;;;1.60;;
43891;SDS011;29555;45.350;5.578;2023-06-14T08:09:22;1.42;;;1.30;;
43891;SDS011;29555;45.350;5.578;2023-06-14T08:11:49;2.35;;;2.17;;
43891;SDS011;29555;45.350;5.578;2023-06-14T08:14:14;3.25;;;1.35;;
43891;SDS011;29555;45.350;5.578;2023-06-14T08:16:40;1.83;;;1.67;;
43891;SDS011;29555;45.350;5.578;2023-06-14T08:19:05;1.75;;;1.65;;
43891;SDS011;29555;45.350;5.578;2023-06-14T08:21:30;1.70;;;1.60;;
43891;SDS011;29555;45.350;5.578;2023-06-14T08:23:58;4.78;;;2.20;;
43891;SDS011;29555;45.350;5.578;2023-06-14T08:26:24;1.48;;;1.27;;
43891;SDS011;29555;45.350;5.578;2023-06-14T08:28:53;2.83;;;2.28;;
43891;SDS011;29555;45.350;5.578;2023-06-14T08:31:19;1.52;;;1.40;;
43891;SDS011;29555;45.350;5.578;2023-06-14T08:33:45;1.35;;;1.30;;
43891;SDS011;29555;45.350;5.578;2023-06-14T08:36:10;1.75;;;1.25;;
43891;SDS011;29555;45.350;5.578;2023-06-14T08:38:37;1.42;;;1.33;;
43891;SDS011;29555;45.350;5.578;2023-06-14T08:41:02;2.15;;;1.70;;
43891;SDS011;29555;45.350;5.578;2023-06-14T08:43:31;1.50;;;1.40;;
43891;SDS011;29555;45.350;5.578;2023-06-14T08:46:00;3.58;;;1.80;;
43891;SDS011;29555;45.350;5.578;2023-06-14T08:48:27;1.63;;;1.52;;
43891;SDS011;29555;45.350;5.578;2023-06-14T08:50:54;1.85;;;1.50;;
43891;SDS011;29555;45.350;5.578;2023-06-14T08:53:35;2.33;;;1.80;;
43891;SDS011;29555;45.350;5.578;2023-06-14T08:56:07;1.15;;;1.15;;
43891;SDS011;29555;45.350;5.578;2023-06-14T08:58:38;1.60;;;1.50;;
43891;SDS011;29555;45.350;5.578;2023-06-14T09:01:10;8.30;;;2.08;;
43891;SDS011;29555;45.350;5.578;2023-06-14T09:03:39;1.73;;;0.90;;
43891;SDS011;29555;45.350;5.578;2023-06-14T09:06:08;1.30;;;1.20;;
43891;SDS011;29555;45.350;5.578;2023-06-14T09:08:42;1.60;;;1.00;;
43891;SDS011;29555;45.350;5.578;2023-06-14T09:11:12;3.25;;;1.70;;
43891;SDS011;29555;45.350;5.578;2023-06-14T09:13:39;1.88;;;1.48;;
43891;SDS011;29555;45.350;5.578;2023-06-14T09:16:05;4.22;;;1.55;;
43891;SDS011;29555;45.350;5.578;2023-06-14T09:18:35;1.58;;;1.48;;
43891;SDS011;29555;45.350;5.578;2023-06-14T09:21:01;3.33;;;1.75;;
43891;SDS011;29555;45.350;5.578;2023-06-14T09:23:27;1.80;;;1.70;;
43891;SDS011;29555;45.350;5.578;2023-06-14T09:25:52;1.60;;;1.42;;
43891;SDS011;29555;45.350;5.578;2023-06-14T09:28:17;3.45;;;1.38;;
43891;SDS011;29555;45.350;5.578;2023-06-14T09:30:43;1.33;;;1.23;;
43891;SDS011;29555;45.350;5.578;2023-06-14T09:33:08;3.08;;;2.45;;
43891;SDS011;29555;45.350;5.578;2023-06-14T09:35:34;1.77;;;1.60;;
43891;SDS011;29555;45.350;5.578;2023-06-14T09:38:00;4.32;;;1.20;;
43891;SDS011;29555;45.350;5.578;2023-06-14T09:40:26;1.85;;;1.65;;
43891;SDS011;29555;45.350;5.578;2023-06-14T09:42:51;1.70;;;1.60;;
43891;SDS011;29555;45.350;5.578;2023-06-14T09:45:17;4.80;;;1.48;;
43891;SDS011;29555;45.350;5.578;2023-06-14T09:47:47;1.60;;;1.50;;
43891;SDS011;29555;45.350;5.578;2023-06-14T09:50:14;3.13;;;1.45;;
43891;SDS011;29555;45.350;5.578;2023-06-14T09:52:39;2.78;;;1.58;;
43891;SDS011;29555;45.350;5.578;2023-06-14T09:55:12;2.15;;;1.58;;
43891;SDS011;29555;45.350;5.578;2023-06-14T09:57:40;3.03;;;1.85;;
43891;SDS011;29555;45.350;5.578;2023-06-14T10:00:06;2.67;;;1.52;;
43891;SDS011;29555;45.350;5.578;2023-06-14T10:02:36;2.00;;;1.30;;
43891;SDS011;29555;45.350;5.578;2023-06-14T10:05:05;2.85;;;1.80;;
43891;SDS011;29555;45.350;5.578;2023-06-14T10:07:53;9.32;;;2.33;;
43891;SDS011;29555;45.350;5.578;2023-06-14T10:10:21;3.20;;;2.47;;
43891;SDS011;29555;45.350;5.578;2023-06-14T10:12:47;3.90;;;2.97;;
43891;SDS011;29555;45.350;5.578;2023-06-14T10:15:17;2.58;;;2.13;;
43891;SDS011;29555;45.350;5.578;2023-06-14T10:17:49;7.32;;;1.95;;
43891;SDS011;29555;45.350;5.578;2023-06-14T10:20:35;2.28;;;1.58;;
43891;SDS011;29555;45.350;5.578;2023-06-14T10:23:13;3.35;;;2.13;;
43891;SDS011;29555;45.350;5.578;2023-06-14T10:25:43;9.38;;;2.22;;
43891;SDS011;29555;45.350;5.578;2023-06-14T10:30:37;2.47;;;2.28;;
43891;SDS011;29555;45.350;5.578;2023-06-14T10:33:06;4.22;;;2.17;;
43891;SDS011;29555;45.350;5.578;2023-06-14T10:35:32;2.72;;;2.53;;
43891;SDS011;29555;45.350;5.578;2023-06-14T10:38:13;8.85;;;3.35;;
43891;SDS011;29555;45.350;5.578;2023-06-14T10:40:39;2.15;;;2.03;;
43891;SDS011;29555;45.350;5.578;2023-06-14T10:43:21;3.53;;;3.08;;
43891;SDS011;29555;45.350;5.578;2023-06-14T10:48:42;2.55;;;2.30;;
43891;SDS011;29555;45.350;5.578;2023-06-14T10:51:15;4.00;;;2.72;;
43891;SDS011;29555;45.350;5.578;2023-06-14T10:53:45;2.70;;;2.45;;
43891;SDS011;29555;45.350;5.578;2023-06-14T10:56:33;2.55;;;2.35;;
43891;SDS011;29555;45.350;5.578;2023-06-14T10:58:57;2.72;;;2.53;;
43891;SDS011;29555;45.350;5.578;2023-06-14T11:01:30;3.15;;;2.95;;
43891;SDS011;29555;45.350;5.578;2023-06-14T11:04:06;3.45;;;2.63;;
43891;SDS011;29555;45.350;5.578;2023-06-14T11:06:54;4.10;;;1.98;;
43891;SDS011;29555;45.350;5.578;2023-06-14T11:12:19;3.15;;;2.85;;
43891;SDS011;29555;45.350;5.578;2023-06-14T11:14:46;2.55;;;2.42;;
43891;SDS011;29555;45.350;5.578;2023-06-14T11:17:12;4.32;;;3.08;;
43891;SDS011;29555;45.350;5.578;2023-06-14T11:19:38;1.77;;;1.67;;
43891;SDS011;29555;45.350;5.578;2023-06-14T11:22:03;10.20;;;2.40;;
43891;SDS011;29555;45.350;5.578;2023-06-14T11:24:29;2.67;;;2.47;;
43891;SDS011;29555;45.350;5.578;2023-06-14T11:26:55;2.28;;;2.00;;
43891;SDS011;29555;45.350;5.578;2023-06-14T11:29:21;3.08;;;2.63;;
43891;SDS011;29555;45.350;5.578;2023-06-14T11:31:47;3.40;;;2.80;;
43891;SDS011;29555;45.350;5.578;2023-06-14T11:34:12;5.80;;;2.15;;
43891;SDS011;29555;45.350;5.578;2023-06-14T11:36:38;2.10;;;2.00;;
43891;SDS011;29555;45.350;5.578;2023-06-14T11:39:05;5.07;;;2.70;;
43891;SDS011;29555;45.350;5.578;2023-06-14T11:41:36;3.85;;;2.35;;
43891;SDS011;29555;45.350;5.578;2023-06-14T11:44:07;3.67;;;2.47;;
43891;SDS011;29555;45.350;5.578;2023-06-14T11:46:32;2.58;;;2.38;;
43891;SDS011;29555;45.350;5.578;2023-06-14T11:48:58;3.25;;;2.97;;
43891;SDS011;29555;45.350;5.578;2023-06-14T11:51:27;3.38;;;3.10;;
43891;SDS011;29555;45.350;5.578;2023-06-14T11:53:53;3.47;;;2.42;;
43891;SDS011;29555;45.350;5.578;2023-06-14T11:56:19;6.85;;;3.15;;
43891;SDS011;29555;45.350;5.578;2023-06-14T11:58:44;10.85;;;2.53;;
43891;SDS011;29555;45.350;5.578;2023-06-14T12:01:14;2.60;;;2.00;;
43891;SDS011;29555;45.350;5.578;2023-06-14T12:03:46;2.90;;;1.80;;
43891;SDS011;29555;45.350;5.578;2023-06-14T12:06:13;4.13;;;3.10;;
43891;SDS011;29555;45.350;5.578;2023-06-14T12:08:39;6.55;;;2.33;;
43891;SDS011;29555;45.350;5.578;2023-06-14T12:11:11;2.67;;;1.95;;
43891;SDS011;29555;45.350;5.578;2023-06-14T12:13:38;2.50;;;2.30;;
43891;SDS011;29555;45.350;5.578;2023-06-14T12:16:08;2.42;;;2.22;;
43891;SDS011;29555;45.350;5.578;2023-06-14T12:18:35;2.00;;;1.90;;
43891;SDS011;29555;45.350;5.578;2023-06-14T12:21:03;6.25;;;3.03;;
43891;SDS011;29555;45.350;5.578;2023-06-14T12:23:42;5.57;;;2.20;;
43891;SDS011;29555;45.350;5.578;2023-06-14T12:26:15;3.10;;;2.80;;
43891;SDS011;29555;45.350;5.578;2023-06-14T12:28:42;2.20;;;2.00;;
43891;SDS011;29555;45.350;5.578;2023-06-14T12:31:09;3.60;;;3.17;;
43891;SDS011;29555;45.350;5.578;2023-06-14T12:33:37;2.30;;;2.15;;
43891;SDS011;29555;45.350;5.578;2023-06-14T12:36:06;2.42;;;2.10;;
43891;SDS011;29555;45.350;5.578;2023-06-14T12:38:32;4.20;;;2.60;;
43891;SDS011;29555;45.350;5.578;2023-06-14T12:40:58;2.88;;;2.45;;
43891;SDS011;29555;45.350;5.578;2023-06-14T12:43:23;3.08;;;2.88;;
43891;SDS011;29555;45.350;5.578;2023-06-14T12:45:49;5.78;;;1.85;;
43891;SDS011;29555;45.350;5.578;2023-06-14T12:48:14;2.53;;;2.33;;
43891;SDS011;29555;45.350;5.578;2023-06-14T12:50:40;2.60;;;2.22;;
43891;SDS011;29555;45.350;5.578;2023-06-14T12:53:06;3.45;;;3.05;;
43891;SDS011;29555;45.350;5.578;2023-06-14T12:55:32;3.63;;;3.08;;
43891;SDS011;29555;45.350;5.578;2023-06-14T12:57:57;2.88;;;2.47;;
43891;SDS011;29555;45.350;5.578;2023-06-14T13:00:23;3.33;;;3.13;;
43891;SDS011;29555;45.350;5.578;2023-06-14T13:02:50;4.72;;;3.72;;
43891;SDS011;29555;45.350;5.578;2023-06-14T13:05:16;2.50;;;2.35;;
43891;SDS011;29555;45.350;5.578;2023-06-14T13:07:42;9.95;;;3.08;;
43891;SDS011;29555;45.350;5.578;2023-06-14T13:10:07;3.40;;;3.20;;
43891;SDS011;29555;45.350;5.578;2023-06-14T13:12:33;3.45;;;3.10;;
43891;SDS011;29555;45.350;5.578;2023-06-14T13:14:58;4.20;;;3.87;;
43891;SDS011;29555;45.350;5.578;2023-06-14T13:17:24;3.50;;;3.10;;
43891;SDS011;29555;45.350;5.578;2023-06-14T13:19:49;2.80;;;2.60;;
43891;SDS011;29555;45.350;5.578;2023-06-14T13:22:15;3.13;;;2.83;;
43891;SDS011;29555;45.350;5.578;2023-06-14T13:24:40;3.15;;;2.90;;
43891;SDS011;29555;45.350;5.578;2023-06-14T13:27:06;5.40;;;2.35;;
43891;SDS011;29555;45.350;5.578;2023-06-14T13:29:31;2.83;;;2.63;;
43891;SDS011;29555;45.350;5.578;2023-06-14T13:31:58;1.95;;;1.88;;
43891;SDS011;29555;45.350;5.578;2023-06-14T13:34:24;2.92;;;2.67;;
43891;SDS011;29555;45.350;5.578;2023-06-14T13:36:49;2.95;;;2.72;;
43891;SDS011;29555;45.350;5.578;2023-06-14T13:39:15;4.18;;;3.50;;
43891;SDS011;29555;45.350;5.578;2023-06-14T13:41:41;2.45;;;2.33;;
43891;SDS011;29555;45.350;5.578;2023-06-14T13:44:06;8.60;;;3.30;;
43891;SDS011;29555;45.350;5.578;2023-06-14T13:46:31;3.65;;;2.42;;
43891;SDS011;29555;45.350;5.578;2023-06-14T13:48:57;2.78;;;2.30;;
43891;SDS011;29555;45.350;5.578;2023-06-14T13:51:26;2.83;;;2.60;;
43891;SDS011;29555;45.350;5.578;2023-06-14T13:53:52;2.80;;;2.60;;
43891;SDS011;29555;45.350;5.578;2023-06-14T13:56:18;4.68;;;2.88;;
43891;SDS011;29555;45.350;5.578;2023-06-14T13:58:43;7.50;;;2.95;;
43891;SDS011;29555;45.350;5.578;2023-06-14T14:01:09;4.05;;;2.90;;
43891;SDS011;29555;45.350;5.578;2023-06-14T14:03:36;2.50;;;2.08;;
43891;SDS011;29555;45.350;5.578;2023-06-14T14:06:04;3.63;;;3.28;;
43891;SDS011;29555;45.350;5.578;2023-06-14T14:08:34;2.50;;;2.00;;
43891;SDS011;29555;45.350;5.578;2023-06-14T14:11:00;4.47;;;2.38;;
43891;SDS011;29555;45.350;5.578;2023-06-14T14:13:25;4.30;;;3.72;;
43891;SDS011;29555;45.350;5.578;2023-06-14T14:15:51;3.42;;;3.13;;
43891;SDS011;29555;45.350;5.578;2023-06-14T14:18:17;2.50;;;1.83;;
43891;SDS011;29555;45.350;5.578;2023-06-14T14:20:43;4.93;;;2.83;;
43891;SDS011;29555;45.350;5.578;2023-06-14T14:23:08;5.28;;;2.47;;
43891;SDS011;29555;45.350;5.578;2023-06-14T14:25:33;2.65;;;2.45;;
43891;SDS011;29555;45.350;5.578;2023-06-14T14:27:59;3.40;;;2.70;;
43891;SDS011;29555;45.350;5.578;2023-06-14T14:30:24;2.90;;;2.67;;
43891;SDS011;29555;45.350;5.578;2023-06-14T14:32:50;3.28;;;2.97;;
43891;SDS011;29555;45.350;5.578;2023-06-14T14:35:16;8.40;;;2.40;;
43891;SDS011;29555;45.350;5.578;2023-06-14T14:37:42;4.13;;;2.80;;
43891;SDS011;29555;45.350;5.578;2023-06-14T14:40:08;2.63;;;2.42;;
43891;SDS011;29555;45.350;5.578;2023-06-14T14:42:34;7.78;;;2.55;;
43891;SDS011;29555;45.350;5.578;2023-06-14T14:45:00;2.35;;;2.20;;
43891;SDS011;29555;45.350;5.578;2023-06-14T14:47:25;2.58;;;2.35;;
43891;SDS011;29555;45.350;5.578;2023-06-14T14:49:51;3.38;;;2.90;;
43891;SDS011;29555;45.350;5.578;2023-06-14T14:52:16;2.35;;;2.03;;
43891;SDS011;29555;45.350;5.578;2023-06-14T14:54:42;3.57;;;3.27;;
43891;SDS011;29555;45.350;5.578;2023-06-14T14:57:07;7.37;;;2.37;;